aviador You're here:

KJMR Decoded Metar

MORA in MN, USA
Report Time2017-07-24 16:34:00
UTC Time2017-07-24 16:47:59
Flight Rules mvfr MVFR
Wind200° at 04 kt
W.Decomp.*RWY 17: 3.6 kt HW 1.8 kt RCW
W.Rank200° ranks 14
Current wind is below 200° avg. (7.1)
Visibility9999 m
Phenomena:N/A
Clouds:Broken 019 Hf
Broken 025 Hf
Expected CloudBase > 1,600 ft AGL from Temp-Dew spread
Ceiling1,900 ft
Temp18°C (ISA +5)
Dew Point14°C (78% RH)
AAT17.9°C
QNH1019 hPa
Density Alt1,617 ft
Elevation1,014 ft
Report Wrong Elevation
Raw Report
KJMR 241634Z AUTO 20004KT 10SM BKN019 BKN025 18/14 A3009 RMK
AO2=

Extra information for KJMR:More info

Metar Taf Metar & Taf Last 4 Metars F.Rules Stats Wind Profile Meteogram Temp Stats Airport Information Weather charts Add Link Nearby VenuesMetar ALERT Operation Metar Decoded Social comments

AIRNAV info for KJMR